createdAt,value
2019-03-30T00:01:01.905Z,167.80
2019-03-30T00:03:54.385Z,170.00
2019-03-30T00:06:47.834Z,166.53
2019-03-30T00:09:40.552Z,149.83
2019-03-30T00:12:33.005Z,162.07
2019-03-30T00:15:25.563Z,166.63
2019-03-30T00:18:17.860Z,163.50
2019-03-30T00:21:10.304Z,165.67
2019-03-30T00:24:03.496Z,163.13
2019-03-30T00:26:56.383Z,161.17
2019-03-30T00:29:49.648Z,162.47
2019-03-30T00:32:42.492Z,150.53
2019-03-30T00:35:34.997Z,158.20
2019-03-30T00:38:27.472Z,163.03
2019-03-30T00:41:19.572Z,164.10
2019-03-30T00:44:11.736Z,150.67
2019-03-30T00:47:03.907Z,188.10
2019-03-30T00:49:56.080Z,154.33
2019-03-30T00:52:48.369Z,145.57
2019-03-30T00:55:40.828Z,165.60
2019-03-30T00:58:33.193Z,143.90
2019-03-30T01:01:25.345Z,178.70
2019-03-30T01:04:17.774Z,161.87
2019-03-30T01:07:10.236Z,163.90
2019-03-30T01:10:02.711Z,158.90
2019-03-30T01:12:55.803Z,167.10
2019-03-30T01:15:48.100Z,147.70
2019-03-30T01:18:40.774Z,158.40
2019-03-30T01:21:34.155Z,169.93
2019-03-30T01:24:26.523Z,171.70
2019-03-30T01:27:19.296Z,174.20
2019-03-30T01:30:22.563Z,164.93
2019-03-30T01:33:06.229Z,170.57
2019-03-30T01:35:58.755Z,171.47
2019-03-30T01:38:51.372Z,192.53
2019-03-30T01:41:44.468Z,169.67
2019-03-30T01:44:36.873Z,204.10
2019-03-30T01:47:29.712Z,183.57
2019-03-30T01:50:22.723Z,176.60
2019-03-30T01:53:14.990Z,168.23
2019-03-30T01:56:07.492Z,173.90
2019-03-30T01:59:00.292Z,170.80
2019-03-30T02:01:53.452Z,164.37
2019-03-30T02:04:45.968Z,176.23
2019-03-30T02:07:38.990Z,171.70
2019-03-30T02:10:50.398Z,162.60
2019-03-30T02:13:42.869Z,146.80
2019-03-30T02:16:35.241Z,116.57
2019-03-30T02:19:27.646Z,131.63
2019-03-30T02:22:19.879Z,102.37
2019-03-30T02:25:13.424Z,106.03
2019-03-30T02:28:07.149Z,137.63
2019-03-30T02:30:59.999Z,113.73
2019-03-30T02:33:52.443Z,108.70
2019-03-30T02:36:44.560Z,123.77
2019-03-30T02:39:36.728Z,115.00
2019-03-30T02:42:28.999Z,106.23
2019-03-30T02:45:21.229Z,117.90
2019-03-30T02:48:13.635Z,124.83
2019-03-30T02:51:06.134Z,118.60
2019-03-30T02:53:58.581Z,123.47
2019-03-30T02:56:52.527Z,137.13
2019-03-30T02:59:44.745Z,139.13
2019-03-30T03:02:37.143Z,124.30
2019-03-30T03:05:29.591Z,123.33
2019-03-30T03:08:21.661Z,132.37
2019-03-30T03:11:13.922Z,121.90
2019-03-30T03:14:06.372Z,138.27
2019-03-30T03:16:58.767Z,126.20
2019-03-30T03:19:50.970Z,121.60
2019-03-30T03:22:43.068Z,120.07
2019-03-30T03:25:35.391Z,119.00
2019-03-30T03:28:27.538Z,143.73
2019-03-30T03:31:19.779Z,151.07
2019-03-30T03:34:12.284Z,136.80
2019-03-30T03:37:04.808Z,151.13
2019-03-30T03:39:56.995Z,136.60
2019-03-30T03:42:49.507Z,145.10
2019-03-30T03:45:41.648Z,132.33
2019-03-30T03:48:34.481Z,123.07
2019-03-30T03:51:26.903Z,125.00
2019-03-30T03:54:20.008Z,127.47
2019-03-30T03:57:14.558Z,121.13
2019-03-30T04:00:09.451Z,140.77
2019-03-30T04:03:04.961Z,140.37
2019-03-30T04:06:00.697Z,149.73
2019-03-30T04:08:55.811Z,155.57
2019-03-30T04:11:49.451Z,182.03
2019-03-30T04:14:49.727Z,124.73
2019-03-30T04:17:42.888Z,160.90
2019-03-30T04:20:35.319Z,165.63
2019-03-30T04:23:27.650Z,158.73
2019-03-30T04:26:19.844Z,146.47
2019-03-30T04:29:12.510Z,167.63
2019-03-30T04:32:06.121Z,164.63
2019-03-30T04:34:58.416Z,169.13
2019-03-30T04:37:50.822Z,155.13
2019-03-30T04:40:43.300Z,140.30
2019-03-30T04:43:35.640Z,151.43
2019-03-30T04:46:28.044Z,168.23
2019-03-30T04:49:20.385Z,146.47
2019-03-30T04:52:12.982Z,144.87
2019-03-30T04:55:05.277Z,181.50
2019-03-30T04:57:58.101Z,166.30
2019-03-30T05:00:50.523Z,148.30
2019-03-30T05:03:42.993Z,150.67
2019-03-30T05:06:35.597Z,168.27
2019-03-30T05:09:27.819Z,145.10
2019-03-30T05:12:19.957Z,153.93
2019-03-30T05:15:12.397Z,179.27
2019-03-30T05:18:04.777Z,176.70
2019-03-30T05:20:56.961Z,152.53
2019-03-30T05:23:49.121Z,125.23
2019-03-30T05:26:41.561Z,102.73
2019-03-30T05:29:34.682Z,120.67
2019-03-30T05:32:27.075Z,129.23
2019-03-30T05:35:19.215Z,114.80
2019-03-30T05:38:11.543Z,122.60
2019-03-30T05:41:04.086Z,154.13
2019-03-30T05:43:56.987Z,164.37
2019-03-30T05:46:49.190Z,150.13
2019-03-30T05:49:41.430Z,168.57
2019-03-30T05:52:35.620Z,158.43
2019-03-30T05:55:27.867Z,150.37
2019-03-30T05:58:20.336Z,160.87
2019-03-30T06:01:12.966Z,151.87
2019-03-30T06:04:05.477Z,155.83
2019-03-30T06:06:58.481Z,148.20
2019-03-30T06:09:51.343Z,155.53
2019-03-30T06:12:43.589Z,155.87
2019-03-30T06:15:36.489Z,141.13
2019-03-30T06:18:29.533Z,124.53
2019-03-30T06:21:22.457Z,119.53
2019-03-30T06:24:14.923Z,114.70
2019-03-30T06:27:07.062Z,117.63
2019-03-30T06:30:24.035Z,121.63
2019-03-30T06:33:16.487Z,119.60
2019-03-30T06:36:08.704Z,109.17
2019-03-30T06:39:01.133Z,107.63
2019-03-30T06:41:53.425Z,108.67
2019-03-30T06:44:46.524Z,102.70
2019-03-30T06:47:38.671Z,97.63
2019-03-30T06:50:31.568Z,91.50
2019-03-30T06:53:23.960Z,90.77
2019-03-30T06:56:16.346Z,89.13
2019-03-30T06:59:08.513Z,90.73
2019-03-30T07:02:00.779Z,84.13
2019-03-30T07:04:53.456Z,90.77
2019-03-30T07:07:48.236Z,88.60
2019-03-30T07:10:42.625Z,88.07
2019-03-30T07:13:38.014Z,93.33
2019-03-30T07:16:33.245Z,102.77
2019-03-30T07:19:28.621Z,89.33
2019-03-30T07:22:21.548Z,90.37
2019-03-30T07:25:13.910Z,93.60
2019-03-30T07:28:06.488Z,94.77
2019-03-30T07:30:58.718Z,97.43
2019-03-30T07:33:50.896Z,89.80
2019-03-30T07:36:43.022Z,93.17
2019-03-30T07:39:36.014Z,104.57
2019-03-30T07:42:28.997Z,96.20
2019-03-30T07:45:22.374Z,96.40
2019-03-30T07:48:14.894Z,92.27
2019-03-30T07:51:07.450Z,95.40
2019-03-30T07:53:59.754Z,91.87
2019-03-30T07:57:04.296Z,92.57
2019-03-30T07:59:46.311Z,92.33
2019-03-30T08:02:38.494Z,88.93
2019-03-30T08:05:30.908Z,88.40
2019-03-30T08:08:23.320Z,78.20
2019-03-30T08:11:16.355Z,86.23
2019-03-30T08:14:08.889Z,92.80
2019-03-30T08:17:01.345Z,93.07
2019-03-30T08:19:53.720Z,91.93
2019-03-30T08:22:46.582Z,94.83
2019-03-30T08:25:38.743Z,87.63
2019-03-30T08:28:31.650Z,81.50
2019-03-30T08:31:24.622Z,75.07
2019-03-30T08:34:16.997Z,78.80
2019-03-30T08:37:09.385Z,74.77
2019-03-30T08:40:01.754Z,64.77
2019-03-30T08:42:54.206Z,61.80
2019-03-30T08:45:49.054Z,52.80
2019-03-30T08:48:43.355Z,67.90
2019-03-30T08:51:35.520Z,51.37
2019-03-30T08:54:28.393Z,55.67
2019-03-30T08:57:20.971Z,50.30
2019-03-30T09:00:15.375Z,51.97
2019-03-30T09:03:07.341Z,52.23
2019-03-30T09:06:00.546Z,55.17
2019-03-30T09:08:52.935Z,49.00
2019-03-30T09:11:46.341Z,54.27
2019-03-30T09:14:38.856Z,45.03
2019-03-30T09:17:31.030Z,47.83
2019-03-30T09:20:23.975Z,49.20
2019-03-30T09:23:16.277Z,48.07
2019-03-30T09:26:09.643Z,47.70
2019-03-30T09:29:02.601Z,41.87
2019-03-30T09:31:55.076Z,38.47
2019-03-30T09:34:47.317Z,42.50
2019-03-30T09:37:39.752Z,42.27
2019-03-30T09:40:32.343Z,46.50
2019-03-30T09:43:24.867Z,45.43
2019-03-30T09:46:17.275Z,41.53
2019-03-30T09:49:09.473Z,41.90
2019-03-30T09:52:01.625Z,41.00
2019-03-30T09:54:54.089Z,43.80
2019-03-30T09:57:46.519Z,53.10
2019-03-30T10:00:38.638Z,41.97
2019-03-30T10:03:31.105Z,43.07
2019-03-30T10:06:33.849Z,40.40
2019-03-30T10:09:17.601Z,39.43
2019-03-30T10:12:10.173Z,40.83
2019-03-30T10:15:02.269Z,36.70
2019-03-30T10:17:54.717Z,41.63
2019-03-30T10:20:46.871Z,42.47
2019-03-30T10:23:38.933Z,40.77
2019-03-30T10:26:31.144Z,45.13
2019-03-30T10:29:23.943Z,44.20
2019-03-30T10:32:16.091Z,40.10
2019-03-30T10:35:09.833Z,46.17
2019-03-30T10:38:03.149Z,38.03
2019-03-30T10:40:55.675Z,33.83
2019-03-30T10:43:47.941Z,34.20
2019-03-30T10:46:40.384Z,30.57
2019-03-30T10:49:32.585Z,32.73
2019-03-30T10:52:26.457Z,35.30
2019-03-30T10:55:18.856Z,33.60
2019-03-30T10:58:11.294Z,34.10
2019-03-30T11:01:03.545Z,29.60
2019-03-30T11:03:55.721Z,32.10
2019-03-30T11:06:48.233Z,31.80
2019-03-30T11:09:41.273Z,29.87
2019-03-30T11:12:34.178Z,33.63
2019-03-30T11:15:26.257Z,34.20
2019-03-30T11:18:18.399Z,33.27
2019-03-30T11:21:10.809Z,40.60
2019-03-30T11:24:06.551Z,36.37
2019-03-30T11:26:56.730Z,32.77
2019-03-30T11:29:49.757Z,31.60
2019-03-30T11:32:42.376Z,33.03
2019-03-30T11:35:35.057Z,31.77
2019-03-30T11:38:27.417Z,32.60
2019-03-30T11:41:19.985Z,31.03
2019-03-30T11:44:12.432Z,28.40
2019-03-30T11:47:05.065Z,33.43
2019-03-30T11:49:57.764Z,28.97
2019-03-30T11:52:50.336Z,31.87
2019-03-30T11:55:42.741Z,28.03
2019-03-30T11:58:34.998Z,25.60
2019-03-30T12:01:27.305Z,30.40
2019-03-30T12:04:19.969Z,30.00
2019-03-30T12:07:12.287Z,28.60
2019-03-30T12:10:05.039Z,24.80
2019-03-30T12:12:57.250Z,28.43
2019-03-30T12:15:49.436Z,34.57
2019-03-30T12:18:41.594Z,37.47
2019-03-30T12:21:33.982Z,26.33
2019-03-30T12:24:26.120Z,25.33
2019-03-30T12:27:18.585Z,32.70
2019-03-30T12:30:11.652Z,25.50
2019-03-30T12:33:04.201Z,25.10
2019-03-30T12:35:57.039Z,25.77
2019-03-30T12:38:50.214Z,25.87
2019-03-30T12:41:42.546Z,26.33
2019-03-30T12:44:35.265Z,25.40
2019-03-30T12:47:27.577Z,26.60
2019-03-30T12:50:19.962Z,26.40
2019-03-30T12:53:12.490Z,25.00
2019-03-30T12:56:04.890Z,27.30
2019-03-30T12:58:57.282Z,24.07
2019-03-30T13:01:49.778Z,22.73
2019-03-30T13:04:42.046Z,25.30
2019-03-30T13:07:34.650Z,23.20
2019-03-30T13:10:27.569Z,22.90
2019-03-30T13:13:20.047Z,24.17
2019-03-30T13:16:12.454Z,25.57
2019-03-30T13:19:05.347Z,24.53
2019-03-30T13:21:57.856Z,24.77
2019-03-30T13:24:50.964Z,26.03
2019-03-30T13:27:43.425Z,22.00
2019-03-30T13:30:35.840Z,21.60
2019-03-30T13:33:28.001Z,21.57
2019-03-30T13:36:22.491Z,19.00
2019-03-30T13:39:14.607Z,24.33
2019-03-30T13:42:06.957Z,20.77
2019-03-30T13:45:03.403Z,19.33
2019-03-30T13:47:57.310Z,27.73
2019-03-30T13:50:49.747Z,21.73
2019-03-30T13:53:42.231Z,20.90
2019-03-30T13:56:34.591Z,38.07
2019-03-30T13:59:27.043Z,22.17
2019-03-30T14:02:19.454Z,33.17
2019-03-30T14:05:11.699Z,20.33
2019-03-30T14:08:04.081Z,20.33
2019-03-30T14:10:56.986Z,22.67
2019-03-30T14:13:49.563Z,20.20
2019-03-30T14:16:42.518Z,18.90
2019-03-30T14:19:34.649Z,19.73
2019-03-30T14:22:27.704Z,19.57
2019-03-30T14:25:19.946Z,19.57
2019-03-30T14:28:13.704Z,21.60
2019-03-30T14:31:06.373Z,19.33
2019-03-30T14:33:58.937Z,19.87
2019-03-30T14:36:51.477Z,20.77
2019-03-30T14:39:43.967Z,21.97
2019-03-30T14:42:36.873Z,23.50
2019-03-30T14:45:29.501Z,22.90
2019-03-30T14:48:21.807Z,23.83
2019-03-30T14:51:14.859Z,19.97
2019-03-30T14:54:07.684Z,21.93
2019-03-30T14:57:00.834Z,22.23
2019-03-30T14:59:53.350Z,23.30
2019-03-30T15:02:45.898Z,21.33
2019-03-30T15:05:38.045Z,22.30
2019-03-30T15:08:30.404Z,22.43
2019-03-30T15:11:22.768Z,29.63
2019-03-30T15:14:15.263Z,21.90
2019-03-30T15:17:08.216Z,18.57
2019-03-30T15:20:01.124Z,19.10
2019-03-30T15:22:53.403Z,48.20
2019-03-30T15:25:45.699Z,22.00
2019-03-30T15:28:38.331Z,19.00
2019-03-30T15:31:31.155Z,21.80
2019-03-30T15:34:23.514Z,20.10
2019-03-30T15:37:16.901Z,16.73
2019-03-30T15:40:11.008Z,16.83
2019-03-30T15:43:04.112Z,18.07
2019-03-30T15:45:56.696Z,16.20
2019-03-30T15:48:48.969Z,15.77
2019-03-30T15:51:41.499Z,21.00
2019-03-30T15:54:37.091Z,15.53
2019-03-30T15:57:28.257Z,18.17
2019-03-30T16:00:21.253Z,24.20
2019-03-30T16:03:13.693Z,21.30
2019-03-30T16:06:05.926Z,21.47
2019-03-30T16:08:58.185Z,18.27
2019-03-30T16:11:50.636Z,21.83
2019-03-30T16:14:43.172Z,23.03
2019-03-30T16:17:35.729Z,19.97
2019-03-30T16:20:28.775Z,23.00
2019-03-30T16:23:21.095Z,28.17
2019-03-30T16:26:13.641Z,27.63
2019-03-30T16:29:06.119Z,21.30
2019-03-30T16:31:58.347Z,24.80
2019-03-30T16:34:50.451Z,26.47
2019-03-30T16:37:42.676Z,41.97
2019-03-30T16:40:35.291Z,49.83
2019-03-30T16:43:27.528Z,37.33
2019-03-30T16:46:20.083Z,34.23
2019-03-30T16:49:13.322Z,36.93
2019-03-30T16:52:06.603Z,39.70
2019-03-30T16:54:59.283Z,41.40
2019-03-30T16:57:52.836Z,44.10
2019-03-30T17:00:56.257Z,41.70
2019-03-30T17:03:39.027Z,45.30
2019-03-30T17:06:31.630Z,39.47
2019-03-30T17:09:24.060Z,45.17
2019-03-30T17:12:16.518Z,41.83
2019-03-30T17:15:10.286Z,50.67
2019-03-30T17:18:02.857Z,45.27
2019-03-30T17:20:55.054Z,52.80
2019-03-30T17:23:47.358Z,50.07
2019-03-30T17:26:39.862Z,53.23
2019-03-30T17:29:32.077Z,54.97
2019-03-30T17:32:25.073Z,58.30
2019-03-30T17:35:17.242Z,62.80
2019-03-30T17:38:09.762Z,55.73
2019-03-30T17:41:02.486Z,59.23
2019-03-30T17:44:24.945Z,63.37
2019-03-30T17:47:17.444Z,77.23
2019-03-30T17:50:11.496Z,74.53
2019-03-30T17:53:05.120Z,72.57
2019-03-30T17:55:57.960Z,84.13
2019-03-30T17:58:52.230Z,74.50
2019-03-30T18:01:44.513Z,78.47
2019-03-30T18:04:38.971Z,75.00
2019-03-30T18:07:31.017Z,76.97
2019-03-30T18:10:24.167Z,93.03
2019-03-30T18:13:16.435Z,87.27
2019-03-30T18:16:09.169Z,73.10
2019-03-30T18:19:01.385Z,68.27
2019-03-30T18:21:54.365Z,69.63
2019-03-30T18:24:46.769Z,69.80
2019-03-30T18:27:39.247Z,67.97
2019-03-30T18:30:42.378Z,71.47
2019-03-30T18:33:35.121Z,75.07
2019-03-30T18:36:30.254Z,78.23
2019-03-30T18:39:22.951Z,78.10
2019-03-30T18:42:15.161Z,73.83
2019-03-30T18:45:09.371Z,78.20
2019-03-30T18:48:14.721Z,78.27
2019-03-30T18:51:07.176Z,85.73
2019-03-30T18:53:59.739Z,81.83
2019-03-30T18:56:52.128Z,85.00
2019-03-30T18:59:44.745Z,89.00
2019-03-30T19:02:37.274Z,90.13
2019-03-30T19:05:29.428Z,85.67
2019-03-30T19:08:22.825Z,90.07
2019-03-30T19:11:15.379Z,94.97
2019-03-30T19:14:08.251Z,92.87
2019-03-30T19:17:00.592Z,96.63
2019-03-30T19:19:53.193Z,93.00
2019-03-30T19:22:45.778Z,94.23
2019-03-30T19:25:38.319Z,102.60
2019-03-30T19:28:30.829Z,90.33
2019-03-30T19:31:23.111Z,87.00
2019-03-30T19:34:15.562Z,89.93
2019-03-30T19:37:08.587Z,94.23
2019-03-30T19:40:00.747Z,100.60
2019-03-30T19:42:52.981Z,85.80
2019-03-30T19:45:45.405Z,95.63
2019-03-30T19:48:37.880Z,88.47
2019-03-30T19:51:30.145Z,89.27
2019-03-30T19:54:22.457Z,90.60
2019-03-30T19:57:14.969Z,90.13
2019-03-30T20:00:08.953Z,83.10
2019-03-30T20:03:01.587Z,92.93
2019-03-30T20:05:54.028Z,92.57
2019-03-30T20:08:46.466Z,96.53
2019-03-30T20:11:38.691Z,90.47
2019-03-30T20:14:30.980Z,88.80
2019-03-30T20:17:23.636Z,85.67
2019-03-30T20:20:15.834Z,95.37
2019-03-30T20:23:08.585Z,98.60
2019-03-30T20:26:02.467Z,88.17
2019-03-30T20:28:55.670Z,92.47
2019-03-30T20:31:47.822Z,86.23
2019-03-30T20:34:40.278Z,87.27
2019-03-30T20:37:32.480Z,91.20
2019-03-30T20:40:24.689Z,85.67
2019-03-30T20:43:16.898Z,83.17
2019-03-30T20:46:09.377Z,87.37
2019-03-30T20:49:01.851Z,84.17
2019-03-30T20:51:54.371Z,91.43
2019-03-30T20:54:46.863Z,88.87
2019-03-30T20:57:39.863Z,94.37
2019-03-30T21:00:32.114Z,81.83
2019-03-30T21:03:24.599Z,84.67
2019-03-30T21:06:17.048Z,91.90
2019-03-30T21:09:10.161Z,87.33
2019-03-30T21:12:03.398Z,87.53
2019-03-30T21:14:55.784Z,91.73
2019-03-30T21:17:47.901Z,94.90
2019-03-30T21:20:40.435Z,86.77
2019-03-30T21:23:33.493Z,89.53
2019-03-30T21:26:28.624Z,89.50
2019-03-30T21:29:19.970Z,81.17
2019-03-30T21:32:12.092Z,83.00
2019-03-30T21:35:07.021Z,83.20
2019-03-30T21:37:59.512Z,84.67
2019-03-30T21:40:51.722Z,89.43
2019-03-30T21:43:44.218Z,79.33
2019-03-30T21:46:36.408Z,80.83
2019-03-30T21:49:31.000Z,97.27
2019-03-30T21:52:23.020Z,92.13
2019-03-30T21:55:15.627Z,93.37
2019-03-30T21:58:08.057Z,88.50
2019-03-30T22:01:01.635Z,92.27
2019-03-30T22:03:54.057Z,94.87
2019-03-30T22:06:46.518Z,84.23
2019-03-30T22:09:40.094Z,85.53
2019-03-30T22:12:33.342Z,79.17
2019-03-30T22:15:29.433Z,85.13
2019-03-30T22:18:21.652Z,89.07
2019-03-30T22:21:14.016Z,86.77
2019-03-30T22:24:06.533Z,97.80
2019-03-30T22:27:00.158Z,96.77
2019-03-30T22:29:53.031Z,93.10
2019-03-30T22:32:45.267Z,97.67
2019-03-30T22:35:37.475Z,93.77
2019-03-30T22:38:30.295Z,89.50
2019-03-30T22:41:22.698Z,89.30
2019-03-30T22:44:15.120Z,88.07
2019-03-30T22:47:07.685Z,93.33
2019-03-30T22:50:00.516Z,91.27
2019-03-30T22:52:52.982Z,84.57
2019-03-30T22:55:45.540Z,92.33
2019-03-30T22:58:38.085Z,91.90
2019-03-30T23:01:30.479Z,85.87
2019-03-30T23:04:22.712Z,89.83
2019-03-30T23:07:15.137Z,88.60
2019-03-30T23:10:08.017Z,88.70
2019-03-30T23:13:00.481Z,93.93
2019-03-30T23:15:52.872Z,84.67
2019-03-30T23:18:45.593Z,85.20
2019-03-30T23:21:38.428Z,84.50
2019-03-30T23:24:30.949Z,78.67
2019-03-30T23:27:23.300Z,89.93
2019-03-30T23:30:15.701Z,82.27
2019-03-30T23:33:07.885Z,86.30
2019-03-30T23:36:00.958Z,90.23
2019-03-30T23:38:53.387Z,88.73
2019-03-30T23:41:45.730Z,91.77
2019-03-30T23:44:37.971Z,89.97
2019-03-30T23:47:31.552Z,86.17
2019-03-30T23:50:23.660Z,95.83
2019-03-30T23:53:15.951Z,87.90
2019-03-30T23:56:27.196Z,92.27
2019-03-30T23:59:19.439Z,84.80
